Categorías
Sin categoría

MXGP EN ARGENTINA: CAIROLI Y PRADO BRILLARON EN VILLA LA ANGOSTURA

MOTO MXGP

PATAGONIA 2019, ARGENTINA

BRILLARON CAIROLI EN LA RACE 2 Y EL ESPAÑOL PRADO EN LA MX 2

EL ARGENTINO JOAQUIN POLI FUE 21

Mas info en http: www.mxgpargentina.com .-

Fuente: Prensa MXGP Argentina.-

RESULTADOS

RACE 2

XGP – Grand Prix Race 2 – Classification
Pos Nr Rider Nat. Fed. Bike Time laps Diff. First Diff. Prev. Bestlaptime in lap Speed
1 222 Cairoli, Antonio ITA FMI KTM 34:56.475 19 0:00.000 0:00.000 1:43.336 7 58.1
2 243 Gajser, Tim SLO AMZS Honda 34:58.861 19 0:02.386 0:02.386 1:43.895 7 57.8
3 89 Van Horebeek, Jeremy BEL FMB Honda 35:34.304 19 0:37.829 0:35.443 1:45.841 7 56.8
4 99 Anstie, Max GBR ACU KTM 35:38.807 19 0:42.332 0:04.503 1:45.640 8 56.9
5 21 Paulin, Gautier FRA MCM Yamaha 35:39.545 19 0:43.070 0:00.738 1:45.440 5 57
6 25 Desalle, Clement BEL FMB Kawasaki 35:43.984 19 0:47.509 0:04.439 1:45.449 2 57
7 100 Searle, Tommy GBR ACU Kawasaki 35:46.077 19 0:49.602 0:02.093 1:46.023 9 56.7
8 27 Jasikonis, Arminas LTU LMSF Husqvarna 35:55.285 19 0:58.810 0:09.208 1:46.040 2 56.6
9 24 Simpson, Shaun GBR ACU KTM 35:58.416 19 1:01.941 0:03.131 1:46.382 7 56.5
10 4 Tonus, Arnaud SUI FMS Yamaha 35:59.988 19 1:03.513 0:01.572 1:46.910 5 56.2
11 91 Seewer, Jeremy SUI FMS Yamaha 36:03.291 19 1:06.816 0:03.303 1:46.745 10 56.3
12 41 Jonass, Pauls LAT LAMSF Husqvarna 36:06.679 19 1:10.204 0:03.388 1:46.363 7 56.5
13 77 Lupino, Alessandro ITA FMI Kawasaki 36:09.163 19 1:12.688 0:02.484 1:46.575 2 56.4
14 33 Lieber, Julien BEL FMB Kawasaki 36:15.747 19 1:19.272 0:06.584 1:46.313 5 56.5
15 911 Tixier, Jordi FRA FFM KTM 36:26.476 19 1:30.001 0:10.729 1:47.724 7 55.8
16 128 Monticelli, Ivo ITA FMI KTM 36:34.068 19 1:37.593 0:07.592 1:46.577 3 56.4
17 189 Bogers, Brian NED KNMV Honda 36:36.005 19 1:39.530 0:01.937 1:48.610 7 55.3
18 259 Coldenhoff, Glenn NED KNMV KTM 35:02.326 18 1 lap 1 lap 1:48.844 5 55.2
19 17 Butron, Jose ESP RFME KTM 35:03.714 18 1 lap 0:01.388 1:49.361 4 54.9
20 171 Luzzardi, Juan Pablo ARG CAMOD KTM 36:00.797 18 1 lap 0:57.083 1:49.741 2 54.7
21 179 Poli, Joaquin ARG CAMOD Honda 36:52.842 18 1 lap 0:52.045 1:51.886 3 53.7
22 175 Garrido, Victor ARG CAMOD Honda 35:31.621 17 2 laps 1 lap 1:54.039 1 52.7
23 461 Febvre, Romain FRA FFM Yamaha 24:39.401 13 6 laps 4 laps 1:44.372 2 57.6
24 220 Salazar, Jetro PER CBM Honda 25:58.070 13 6 laps 1:18.669 1:49.624 7 54.8
25 230 Assuncao , Hector BRA CBM Honda 12:07.496 5 14 laps 8 laps 1:50.775 3 54.2
26 12 Nagl, Maximilian GER DMSB KTM 7:12.962 3 16 laps 2 laps 1:46.641 2 56.3
27 789 Antezana, Marcos BOL FBM Honda 8:45.490 3 16 laps 1:32.528 1:51.871 2 53.7

 

++++++++++

MX 2

 

MX2 – Grand Prix Race 2 – Classification
Pos Nr Rider Nat. Fed. Bike Time laps Diff. First Diff. Prev. Bestlaptime in lap Speed
1 61 Prado, Jorge ESP RFME KTM 33:48.208 18 0:00.000 0:00.000 1:45.339 4 57
2 19 Olsen, Thomas Kjer DEN DMU Husqvarna 33:53.033 18 0:04.825 0:04.825 1:45.851 3 56.7
3 43 Evans, Mitchell AUS MA Honda 34:00.645 18 0:12.437 0:07.612 1:46.202 2 56.6
4 10 Vlaanderen, Calvin NED KNMV Honda 34:11.855 18 0:23.647 0:11.210 1:46.134 3 56.6
5 29 Jacobi, Henry GER DMSB Kawasaki 34:18.809 18 0:30.601 0:06.954 1:46.921 7 56.2
6 193 Geerts, Jago BEL FMB Yamaha 34:19.831 18 0:31.623 0:01.022 1:47.282 5 56
7 919 Watson, Ben GBR ACU Yamaha 34:22.613 18 0:34.405 0:02.782 1:47.322 10 56
8 28 Vialle, Tom FRA FFM KTM 34:35.117 18 0:46.909 0:12.504 1:47.550 6 55.8
9 811 Sterry, Adam GBR ACU Kawasaki 34:39.678 18 0:51.470 0:04.561 1:47.034 5 56.1
10 46 Pootjes, Davy NED KNMV Husqvarna 34:41.962 18 0:53.754 0:02.284 1:48.298 5 55.5
11 747 Cervellin, Michele ITA FMI Yamaha 34:43.873 18 0:55.665 0:01.911 1:48.847 5 55.2
12 426 Mewse, Conrad GBR ACU KTM 34:44.335 18 0:56.127 0:00.462 1:48.194 6 55.5
13 98 Vaessen, Bas NED KNMV KTM 34:49.853 18 1:01.645 0:05.518 1:48.391 5 55.4
14 161 Östlund, Alvin SWE SVEMO Husqvarna 34:51.626 18 1:03.418 0:01.773 1:49.000 6 55.1
15 172 Boisrame, Mathys FRA FFM Honda 35:01.476 18 1:13.268 0:09.850 1:49.315 3 54.9
16 56 Pessoa, Gustavo BRA CBM Kawasaki 35:02.932 18 1:14.724 0:01.456 1:49.127 3 55
17 32 Van doninck, Brent BEL FMB Honda 35:04.562 18 1:16.354 0:01.630 1:49.526 9 54.8
18 53 Walsh, Dylan NZL ACU Husqvarna 35:14.440 18 1:26.232 0:09.878 1:49.202 3 55
19 101 Pichon, Zachary FRA FFM Honda 35:16.397 18 1:28.189 0:01.957 1:49.034 9 55.1
20 959 Renaux, Maxime FRA FFM Yamaha 35:24.437 18 1:36.229 0:08.040 1:48.964 3 55.1
21 102 Sikyna, Richard SVK SMF KTM 35:26.784 18 1:38.576 0:02.347 1:50.458 3 54.4
22 11 Haarup, Mikkel DEN DMU Husqvarna 33:29.747 17 1 lap 1 lap 1:48.213 4 55.5
23 276 Villaronga, Sergio CHL FMC Honda 34:48.498 17 1 lap 1:18.751 1:52.465 5 53.4
24 945 De Souza, Leonardo BRA CBM Honda 34:56.190 17 1 lap 0:07.692 1:53.393 2 53
25 155 Mana, Nicolas ARG CAMOD KTM 35:15.447 17 1 lap 0:19.257 1:53.386 1 53
26 707 Bearzi, Mateo ARG CAMOD Husqvarna 34:27.316 16 2 laps 1 lap 1:57.725 2 51
27 265 Diaz Velez, Gonzalo ARG CAMOD Honda 33:55.535 14 4 laps 2 laps 1:57.742 2 51
28 422 Bratschi, German URU FUM Husqvarna 25:15.616 12 6 laps 2 laps 1:54.094 2 52.6
29 934 Dunka, Lucas BRA CBM Honda 19:28.737 9 9 laps 3 laps 1:53.221 6 53
30 57 Sanayei, Darian USA ACU Kawasaki 7:32.428 3 15 laps 6 laps 1:51.538 3 53.9

 




Deja una respuesta

Tu dirección de correo electrónico no será publicada.